Monroe, MI

1:22 AM EDT on August 24, 2017 (GMT -0400)
Custer

Weather History for KTTF - August, 2014

Change the Weather History Date:

Saturday, August 16, 2014

  Actual Average Record
Temperature  
Mean Temperature 66 °F -  
Max Temperature 80 °F 83 °F 96 °F (1944)
Min Temperature 51 °F 62 °F 21 °F (1997)
Growing Degree Days 16 (Base 50)    
Moisture  
Dew Point 56 °F    
Average Humidity 69    
Maximum Humidity 88    
Minimum Humidity 41    
Precipitation  
Precipitation 0.00 in - - ()
Sea Level Pressure  
Sea Level Pressure 29.92 in    
Wind  
Wind Speed 5 mph (WSW)    
Max Wind Speed 15 mph    
Max Gust Speed 24 mph    
Visibility 10 miles    
Events      
Averages and records for this station are not official NWS values.
T = Trace of Precipitation, MM = Missing Value Source: NWS Daily Summary

Daily Weather History Graph

Daily Weather History Graph

Search for Another Location

Airport or City:

Trip Planner

Search our weather history database for the weather conditions in past years. The results will help you decide how hot, cold, wet, or windy it might be!

Date:

Astronomy

Aug. 16, 2014 Rise Set
Actual Time 6:42 AM EDT 8:32 PM EDT
Civil Twilight 6:12 AM EDT 9:02 PM EDT
Nautical Twilight 5:36 AM EDT 9:38 PM EDT
Astronomical Twilight 4:56 AM EDT 10:17 PM EDT
Moon No Moon Rise 1:34 PM EDT (8/16)
Length of Visible Light 14h 49m
Length of Day
13h 49m
Waning Gibbous, 59% of the Moon is Illuminated
Aug 16
Waning Gibbous
Aug 17
Last Quarter
Aug 25
New
Sep 2
First Quarter
Sep 8
Full

Hourly Weather History & Observations

Time (EDT) Temp. Heat Index Dew Point Humidity Pressure Visibility Wind Dir Wind Speed Gust Speed Precip Events Conditions
12:12 AM 55.4 °F - 51.8 °F 88% 29.97 in 10.0 mi Calm Calm - N/A   Clear
12:32 AM 55.4 °F - 51.8 °F 88% 29.97 in 10.0 mi Calm Calm - N/A   Clear
1:12 AM 55.4 °F - 51.8 °F 88% 29.98 in 10.0 mi Calm Calm - N/A   Clear
1:33 AM 55.4 °F - 50.0 °F 82% 29.97 in 10.0 mi Calm Calm - N/A   Clear
1:53 AM 55.4 °F - 51.8 °F 88% 29.97 in 10.0 mi Calm Calm - N/A   Clear
2:13 AM 55.4 °F - 51.8 °F 88% 29.96 in 10.0 mi Calm Calm - N/A   Clear
2:33 AM 55.4 °F - 50.0 °F 82% 29.96 in 10.0 mi Calm Calm - N/A   Clear
2:53 AM 55.4 °F - 50.0 °F 82% 29.97 in 10.0 mi Calm Calm - N/A   Clear
3:13 AM 53.6 °F - 50.0 °F 88% 29.96 in 10.0 mi Calm Calm - N/A   Clear
3:33 AM 53.6 °F - 50.0 °F 88% 29.95 in 10.0 mi Calm Calm - N/A   Clear
3:53 AM 51.8 °F - 48.2 °F 88% 29.95 in 10.0 mi WSW 3.5 mph - N/A   Clear
4:13 AM 53.6 °F - 48.2 °F 82% 29.94 in 10.0 mi WSW 3.5 mph - N/A   Clear
4:33 AM 51.8 °F - 48.2 °F 88% 29.94 in 10.0 mi Calm Calm - N/A   Clear
4:53 AM 51.8 °F - 48.2 °F 88% 29.95 in 10.0 mi WSW 3.5 mph - N/A   Clear
5:13 AM 53.6 °F - 48.2 °F 82% 29.94 in 10.0 mi WSW 6.9 mph - N/A   Clear
5:33 AM 53.6 °F - 48.2 °F 82% 29.94 in 10.0 mi WSW 4.6 mph - N/A   Clear
5:53 AM 51.8 °F - 48.2 °F 88% 29.94 in 10.0 mi Calm Calm - N/A   Clear
6:14 AM 51.8 °F - 48.2 °F 88% 29.95 in 10.0 mi SW 4.6 mph - N/A   Clear
6:34 AM 53.6 °F - 48.2 °F 82% 29.95 in 10.0 mi WSW 5.8 mph - N/A   Clear
6:54 AM 53.6 °F - 48.2 °F 82% 29.95 in 10.0 mi WSW 6.9 mph - N/A   Clear
7:14 AM 53.6 °F - 48.2 °F 82% 29.95 in 10.0 mi WSW 4.6 mph - N/A   Clear
7:34 AM 53.6 °F - 48.2 °F 82% 29.95 in 10.0 mi WSW 4.6 mph - N/A   Clear
7:54 AM 55.4 °F - 48.2 °F 77% 29.95 in 10.0 mi WSW 5.8 mph - N/A   Clear
8:14 AM 57.2 °F - 50.0 °F 77% 29.96 in 10.0 mi WSW 8.1 mph - N/A   Clear
8:35 AM 57.2 °F - 51.8 °F 82% 29.96 in 10.0 mi SW 6.9 mph - N/A   Clear
8:50 AM 60.8 °F - 51.8 °F 72% 29.95 in 10.0 mi WSW 9.2 mph - N/A   Clear
9:10 AM 62.6 °F - 51.8 °F 68% 29.94 in 10.0 mi WSW 6.9 mph - N/A   Clear
9:30 AM 64.4 °F - 51.8 °F 64% 29.94 in 10.0 mi WSW 9.2 mph - N/A   Clear
9:50 AM 66.2 °F - 53.6 °F 64% 29.94 in 10.0 mi WSW 10.4 mph - N/A   Clear
10:10 AM 68.0 °F - 51.8 °F 56% 29.94 in 10.0 mi WSW 9.2 mph - N/A   Clear
10:30 AM 69.8 °F - 53.6 °F 56% 29.94 in 10.0 mi West 10.4 mph - N/A   Clear
10:50 AM 71.6 °F - 51.8 °F 50% 29.94 in 10.0 mi WSW 11.5 mph 16.1 mph N/A   Clear
11:10 AM 71.6 °F - 51.8 °F 50% 29.94 in 10.0 mi WSW 10.4 mph - N/A   Clear
11:30 AM 73.4 °F - 51.8 °F 47% 29.94 in 10.0 mi WSW 9.2 mph - N/A   Clear
11:50 AM 73.4 °F - 51.8 °F 47% 29.94 in 10.0 mi SW 12.7 mph - N/A   Clear
12:10 PM 75.2 °F - 51.8 °F 44% 29.94 in 10.0 mi WSW 12.7 mph - N/A   Clear
12:31 PM 75.2 °F - 51.8 °F 44% 29.93 in 10.0 mi WSW 11.5 mph - N/A   Clear
12:51 PM 75.2 °F - 51.8 °F 44% 29.93 in 10.0 mi WSW 10.4 mph 18.4 mph N/A   Clear
1:11 PM 77.0 °F - 51.8 °F 41% 29.92 in 10.0 mi WSW 12.7 mph 17.3 mph N/A   Clear
1:31 PM 77.0 °F - 51.8 °F 41% 29.91 in 10.0 mi WSW 12.7 mph 16.1 mph N/A   Clear
1:51 PM 78.8 °F - 53.6 °F 42% 29.91 in 10.0 mi WSW 10.4 mph 17.3 mph N/A   Clear
2:11 PM 78.8 °F - 53.6 °F 42% 29.91 in 10.0 mi WSW 11.5 mph - N/A   Clear
2:31 PM 78.8 °F - 55.4 °F 44% 29.90 in 10.0 mi SW 13.8 mph 18.4 mph N/A   Clear
2:51 PM 80.6 °F 80.8 °F 57.2 °F 45% 29.90 in 10.0 mi WSW 15.0 mph 20.7 mph N/A   Clear
3:12 PM 80.6 °F 80.8 °F 57.2 °F 45% 29.89 in 10.0 mi WSW 12.7 mph 24.2 mph N/A   Scattered Clouds
3:32 PM 78.8 °F - 59.0 °F 51% 29.88 in 10.0 mi WSW 11.5 mph 18.4 mph N/A   Mostly Cloudy
3:52 PM 80.6 °F 81.5 °F 60.8 °F 51% 29.88 in 10.0 mi WSW 11.5 mph 19.6 mph N/A   Mostly Cloudy
4:12 PM 80.6 °F 81.5 °F 60.8 °F 51% 29.87 in 10.0 mi West 13.8 mph 21.9 mph N/A   Scattered Clouds
4:32 PM 80.6 °F 81.5 °F 60.8 °F 51% 29.87 in 10.0 mi West 12.7 mph 23.0 mph N/A   Scattered Clouds
4:52 PM 78.8 °F - 62.6 °F 57% 29.87 in 10.0 mi WSW 11.5 mph - N/A   Mostly Cloudy
5:12 PM 78.8 °F - 62.6 °F 57% 29.87 in 10.0 mi WSW 10.4 mph - N/A   Mostly Cloudy
5:32 PM 78.8 °F - 62.6 °F 57% 29.87 in 10.0 mi West 13.8 mph - N/A   Scattered Clouds
5:52 PM 78.8 °F - 64.4 °F 61% 29.87 in 10.0 mi West 12.7 mph 17.3 mph N/A   Scattered Clouds
6:12 PM 78.8 °F - 64.4 °F 61% 29.86 in 10.0 mi West 12.7 mph - N/A   Scattered Clouds
6:33 PM 78.8 °F - 64.4 °F 61% 29.87 in 10.0 mi WSW 15.0 mph 19.6 mph N/A   Clear
6:53 PM 78.8 °F - 64.4 °F 61% 29.87 in 10.0 mi WSW 11.5 mph 17.3 mph N/A   Clear
7:13 PM 78.8 °F - 66.2 °F 65% 29.86 in 10.0 mi WSW 8.1 mph - N/A   Clear
7:33 PM 77.0 °F - 64.4 °F 65% 29.86 in 10.0 mi WSW 8.1 mph - N/A   Clear
7:53 PM 75.2 °F - 64.4 °F 69% 29.87 in 10.0 mi WSW 10.4 mph - N/A   Clear
8:13 PM 75.2 °F - 64.4 °F 69% 29.87 in 10.0 mi WSW 6.9 mph - N/A   Clear
8:33 PM 75.2 °F - 66.2 °F 73% 29.87 in 10.0 mi SW 6.9 mph - N/A   Mostly Cloudy
8:53 PM 75.2 °F - 66.2 °F 73% 29.87 in 10.0 mi WSW 6.9 mph - N/A   Overcast
9:13 PM 73.4 °F - 66.2 °F 78% 29.88 in 10.0 mi SW 8.1 mph - N/A   Overcast
9:34 PM 73.4 °F - 66.2 °F 78% 29.88 in 10.0 mi SW 8.1 mph - N/A   Overcast
9:54 PM 73.4 °F - 66.2 °F 78% 29.89 in 10.0 mi WSW 6.9 mph - N/A   Overcast
10:14 PM 73.4 °F - 66.2 °F 78% 29.89 in 10.0 mi WSW 6.9 mph - N/A   Mostly Cloudy
10:34 PM 73.4 °F - 66.2 °F 78% 29.90 in 10.0 mi WSW 6.9 mph - N/A   Mostly Cloudy
10:54 PM 73.4 °F - 66.2 °F 78% 29.90 in 10.0 mi WSW 8.1 mph - N/A   Overcast
11:14 PM 71.6 °F - 66.2 °F 83% 29.89 in 7.0 mi WSW 8.1 mph - N/A   Overcast
11:34 PM 71.6 °F - 66.2 °F 83% 29.89 in 7.0 mi WSW 6.9 mph - N/A   Overcast
11:54 PM 71.6 °F - 66.2 °F 83% 29.90 in 7.0 mi WSW 8.1 mph - N/A   Scattered Clouds